createdAt,value
2022-09-02T00:01:29.528Z,21.29
2022-09-02T00:03:31.306Z,21.27
2022-09-02T00:05:32.822Z,21.25
2022-09-02T00:07:34.139Z,21.23
2022-09-02T00:09:37.589Z,21.22
2022-09-02T00:11:39.008Z,21.22
2022-09-02T00:13:40.684Z,21.22
2022-09-02T00:15:42.000Z,21.19
2022-09-02T00:17:43.309Z,21.16
2022-09-02T00:19:44.670Z,21.14
2022-09-02T00:21:45.991Z,21.12
2022-09-02T00:23:47.321Z,21.11
2022-09-02T00:25:48.653Z,21.09
2022-09-02T00:27:49.971Z,21.06
2022-09-02T00:29:51.304Z,21.07
2022-09-02T00:31:52.699Z,21.07
2022-09-02T00:33:54.520Z,21.07
2022-09-02T00:35:55.880Z,21.05
2022-09-02T00:37:57.273Z,21.06
2022-09-02T00:39:58.658Z,21.04
2022-09-02T00:42:01.450Z,21.01
2022-09-02T00:44:03.513Z,21.01
2022-09-02T00:46:04.898Z,21.02
2022-09-02T00:48:06.258Z,21.01
2022-09-02T00:50:07.617Z,20.99
2022-09-02T00:52:08.996Z,20.98
2022-09-02T00:54:11.908Z,20.97
2022-09-02T00:56:13.263Z,20.96
2022-09-02T00:58:14.606Z,20.94
2022-09-02T01:00:18.727Z,20.94
2022-09-02T01:02:24.110Z,20.95
2022-09-02T01:04:26.160Z,20.94
2022-09-02T01:06:27.553Z,20.93
2022-09-02T01:08:30.003Z,20.91
2022-09-02T01:10:34.429Z,20.91
2022-09-02T01:12:36.006Z,20.90
2022-09-02T01:14:37.324Z,20.90
2022-09-02T01:16:38.698Z,20.89
2022-09-02T01:18:44.348Z,20.88
2022-09-02T01:20:45.667Z,20.87
2022-09-02T01:22:46.984Z,20.87
2022-09-02T01:24:48.524Z,20.84
2022-09-02T01:26:49.871Z,20.84
2022-09-02T01:28:51.247Z,20.83
2022-09-02T01:30:52.613Z,20.83
2022-09-02T01:32:53.971Z,20.86
2022-09-02T01:34:55.281Z,20.92
2022-09-02T01:36:56.607Z,20.97
2022-09-02T01:38:57.942Z,20.98
2022-09-02T01:40:59.327Z,20.96
2022-09-02T01:43:00.731Z,20.95
2022-09-02T01:45:02.064Z,20.94
2022-09-02T01:47:03.442Z,20.94
2022-09-02T01:49:04.843Z,20.94
2022-09-02T01:51:06.296Z,20.96
2022-09-02T01:53:08.020Z,20.94
2022-09-02T01:55:09.347Z,20.93
2022-09-02T01:57:10.709Z,20.92
2022-09-02T01:59:17.700Z,20.93
2022-09-02T02:01:19.094Z,20.95
2022-09-02T02:03:20.535Z,20.94
2022-09-02T02:05:22.460Z,20.94
2022-09-02T02:07:24.848Z,20.93
2022-09-02T02:09:26.168Z,20.93
2022-09-02T02:11:27.535Z,20.94
2022-09-02T02:13:28.907Z,20.94
2022-09-02T02:17:30.393Z,20.96
2022-09-02T02:19:31.743Z,20.94
2022-09-02T02:21:33.804Z,20.93
2022-09-02T02:23:35.112Z,20.98
2022-09-02T02:25:36.899Z,20.92
2022-09-02T02:27:38.226Z,20.89
2022-09-02T02:29:39.538Z,20.87
2022-09-02T02:31:40.928Z,20.86
2022-09-02T02:33:42.359Z,20.87
2022-09-02T02:35:43.731Z,20.87
2022-09-02T02:37:46.030Z,20.86
2022-09-02T02:39:47.407Z,20.84
2022-09-02T02:41:48.743Z,20.84
2022-09-02T02:43:50.141Z,20.83
2022-09-02T02:45:51.994Z,20.82
2022-09-02T02:47:54.544Z,20.82
2022-09-02T02:49:55.928Z,20.84
2022-09-02T02:51:57.240Z,20.82
2022-09-02T02:53:59.106Z,19.79
2022-09-02T02:56:00.522Z,20.80
2022-09-02T02:58:01.889Z,20.79
2022-09-02T03:00:03.402Z,20.78
2022-09-02T03:02:04.822Z,20.80
2022-09-02T03:04:06.307Z,20.80
2022-09-02T03:06:07.631Z,20.78
2022-09-02T03:08:08.955Z,20.78
2022-09-02T03:10:10.407Z,20.78
2022-09-02T03:12:11.724Z,20.78
2022-09-02T03:14:13.026Z,20.78
2022-09-02T03:16:14.406Z,20.79
2022-09-02T03:18:15.734Z,20.83
2022-09-02T03:20:17.068Z,20.80
2022-09-02T03:22:18.445Z,20.77
2022-09-02T03:24:19.915Z,20.76
2022-09-02T03:26:21.238Z,20.75
2022-09-02T03:28:22.652Z,20.76
2022-09-02T03:30:25.202Z,20.77
2022-09-02T03:32:30.642Z,20.78
2022-09-02T03:34:32.091Z,20.77
2022-09-02T03:36:33.802Z,19.99
2022-09-02T03:38:35.112Z,20.78
2022-09-02T03:40:36.481Z,20.79
2022-09-02T03:42:38.492Z,20.83
2022-09-02T03:44:41.714Z,20.82
2022-09-02T03:46:43.020Z,20.85
2022-09-02T03:48:44.695Z,20.85
2022-09-02T03:50:47.330Z,20.84
2022-09-02T03:52:48.673Z,20.85
2022-09-02T03:54:50.235Z,20.83
2022-09-02T03:56:51.570Z,19.89
2022-09-02T03:58:53.559Z,20.81
2022-09-02T04:00:54.864Z,20.81
2022-09-02T04:02:56.243Z,20.81
2022-09-02T04:04:57.627Z,20.81
2022-09-02T04:06:58.943Z,20.81
2022-09-02T04:09:00.280Z,20.85
2022-09-02T04:11:01.624Z,20.87
2022-09-02T04:13:02.939Z,20.85
2022-09-02T04:15:04.252Z,20.85
2022-09-02T04:17:05.598Z,20.83
2022-09-02T04:19:06.977Z,20.87
2022-09-02T04:21:08.283Z,20.86
2022-09-02T04:23:09.623Z,20.80
2022-09-02T04:25:11.011Z,20.75
2022-09-02T04:27:12.328Z,20.72
2022-09-02T04:29:13.750Z,20.72
2022-09-02T04:31:15.105Z,20.71
2022-09-02T04:33:16.450Z,20.70
2022-09-02T04:35:17.772Z,20.69
2022-09-02T04:37:19.098Z,20.68
2022-09-02T04:39:20.908Z,20.67
2022-09-02T04:41:22.960Z,20.68
2022-09-02T04:43:25.127Z,20.69
2022-09-02T04:45:29.780Z,20.66
2022-09-02T04:47:31.337Z,20.67
2022-09-02T04:49:33.485Z,20.68
2022-09-02T04:51:34.895Z,20.76
2022-09-02T04:53:36.316Z,20.83
2022-09-02T04:55:37.700Z,20.83
2022-09-02T04:57:39.452Z,20.87
2022-09-02T04:59:40.854Z,20.83
2022-09-02T05:01:42.900Z,20.78
2022-09-02T05:03:44.758Z,20.77
2022-09-02T05:05:46.579Z,20.75
2022-09-02T05:07:47.916Z,20.74
2022-09-02T05:09:50.573Z,20.74
2022-09-02T05:11:52.271Z,20.75
2022-09-02T05:13:53.634Z,20.76
2022-09-02T05:15:54.991Z,20.74
2022-09-02T05:17:56.407Z,20.79
2022-09-02T05:19:57.724Z,20.81
2022-09-02T05:21:59.347Z,20.82
2022-09-02T05:24:00.973Z,20.79
2022-09-02T05:26:03.323Z,20.88
2022-09-02T05:28:04.639Z,20.89
2022-09-02T05:30:05.996Z,20.87
2022-09-02T05:32:08.256Z,20.83
2022-09-02T05:34:09.688Z,20.71
2022-09-02T05:36:12.552Z,20.61
2022-09-02T05:38:14.779Z,20.56
2022-09-02T05:40:16.211Z,20.52
2022-09-02T05:42:24.844Z,20.48
2022-09-02T05:44:26.238Z,20.46
2022-09-02T05:46:27.634Z,20.43
2022-09-02T05:48:47.887Z,20.41
2022-09-02T05:50:50.260Z,20.38
2022-09-02T05:52:58.840Z,20.38
2022-09-02T05:55:00.711Z,20.35
2022-09-02T05:57:02.071Z,20.35
2022-09-02T05:59:03.492Z,20.33
2022-09-02T06:01:04.939Z,20.31
2022-09-02T06:03:06.323Z,20.31
2022-09-02T06:05:12.150Z,20.29
2022-09-02T06:07:13.876Z,20.29
2022-09-02T06:09:15.306Z,20.26
2022-09-02T06:11:17.981Z,20.25
2022-09-02T06:13:22.669Z,20.23
2022-09-02T06:15:27.657Z,20.24
2022-09-02T06:17:29.047Z,20.22
2022-09-02T06:19:30.559Z,20.21
2022-09-02T06:21:31.866Z,20.20
2022-09-02T06:23:33.229Z,20.19
2022-09-02T06:25:34.554Z,20.19
2022-09-02T06:27:36.755Z,20.18
2022-09-02T06:29:38.070Z,20.17
2022-09-02T06:31:39.374Z,20.16
2022-09-02T06:33:40.692Z,20.16
2022-09-02T06:35:42.104Z,20.15
2022-09-02T06:37:43.539Z,20.14
2022-09-02T06:39:46.727Z,20.14
2022-09-02T06:41:49.032Z,20.13
2022-09-02T06:43:50.626Z,20.13
2022-09-02T06:45:52.011Z,20.12
2022-09-02T06:47:53.451Z,20.11
2022-09-02T06:49:54.778Z,20.09
2022-09-02T06:51:56.886Z,20.10
2022-09-02T06:53:58.254Z,20.09
2022-09-02T06:55:59.641Z,20.09
2022-09-02T06:58:00.965Z,20.08
2022-09-02T07:00:03.587Z,20.09
2022-09-02T07:02:05.127Z,20.07
2022-09-02T07:04:25.331Z,20.07
2022-09-02T07:06:27.590Z,20.07
2022-09-02T07:08:28.935Z,20.07
2022-09-02T07:10:30.327Z,20.06
2022-09-02T07:12:31.862Z,20.04
2022-09-02T07:14:33.280Z,20.00
2022-09-02T07:16:34.725Z,19.39
2022-09-02T07:18:36.630Z,19.54
2022-09-02T07:20:38.183Z,19.77
2022-09-02T07:22:39.582Z,19.64
2022-09-02T07:24:40.927Z,19.83
2022-09-02T07:26:42.284Z,19.79
2022-09-02T07:28:43.707Z,20.45
2022-09-02T07:30:45.072Z,20.66
2022-09-02T07:32:46.440Z,20.81
2022-09-02T07:34:47.803Z,20.89
2022-09-02T07:36:49.223Z,20.95
2022-09-02T07:38:50.605Z,20.98
2022-09-02T07:40:57.306Z,21.01
2022-09-02T07:42:58.722Z,21.08
2022-09-02T07:45:00.079Z,21.19
2022-09-02T07:47:01.557Z,21.15
2022-09-02T07:49:04.187Z,21.08
2022-09-02T07:51:06.071Z,21.04
2022-09-02T07:53:07.522Z,21.03
2022-09-02T07:55:13.981Z,21.01
2022-09-02T07:57:16.207Z,21.03
2022-09-02T07:59:18.046Z,21.03
2022-09-02T08:01:23.575Z,21.04
2022-09-02T08:03:25.159Z,21.03
2022-09-02T08:05:26.490Z,21.03
2022-09-02T08:07:27.828Z,21.04
2022-09-02T08:09:29.211Z,21.04
2022-09-02T08:11:32.717Z,21.05
2022-09-02T08:13:34.123Z,21.06
2022-09-02T08:15:35.974Z,21.09
2022-09-02T08:17:37.387Z,21.18
2022-09-02T08:19:38.704Z,21.16
2022-09-02T08:21:40.045Z,21.09
2022-09-02T08:23:41.616Z,21.05
2022-09-02T08:25:43.233Z,21.02
2022-09-02T08:27:44.615Z,20.99
2022-09-02T08:29:45.991Z,20.98
2022-09-02T08:31:48.651Z,20.99
2022-09-02T08:33:52.099Z,21.01
2022-09-02T08:35:53.464Z,21.00
2022-09-02T08:37:54.843Z,20.99
2022-09-02T08:39:56.203Z,20.99
2022-09-02T08:41:57.692Z,20.97
2022-09-02T08:43:59.067Z,20.98
2022-09-02T08:46:00.475Z,20.98
2022-09-02T08:48:01.832Z,20.98
2022-09-02T08:50:03.158Z,20.99
2022-09-02T08:52:04.502Z,21.00
2022-09-02T08:54:05.889Z,21.00
2022-09-02T08:56:07.216Z,21.01
2022-09-02T08:58:08.549Z,21.01
2022-09-02T09:00:09.939Z,21.00
2022-09-02T09:02:11.308Z,21.01
2022-09-02T09:04:18.558Z,21.02
2022-09-02T09:06:19.874Z,21.02
2022-09-02T09:08:21.886Z,21.03
2022-09-02T09:10:23.407Z,21.04
2022-09-02T09:12:24.782Z,21.04
2022-09-02T09:14:26.121Z,21.01
2022-09-02T09:16:27.808Z,20.98
2022-09-02T09:18:34.912Z,21.02
2022-09-02T09:20:36.427Z,21.03
2022-09-02T09:22:37.752Z,21.05
2022-09-02T09:24:39.111Z,21.05
2022-09-02T09:26:40.965Z,21.05
2022-09-02T09:28:43.525Z,21.05
2022-09-02T09:30:44.843Z,21.06
2022-09-02T09:32:46.499Z,21.08
2022-09-02T09:34:49.209Z,21.06
2022-09-02T09:36:51.441Z,21.06
2022-09-02T09:38:52.783Z,21.08
2022-09-02T09:40:54.221Z,21.08
2022-09-02T09:42:56.889Z,21.08
2022-09-02T09:44:58.491Z,20.96
2022-09-02T09:46:59.838Z,20.98
2022-09-02T09:49:01.173Z,21.02
2022-09-02T09:51:02.505Z,21.06
2022-09-02T09:53:03.894Z,21.08
2022-09-02T09:55:05.212Z,21.08
2022-09-02T09:57:06.520Z,21.10
2022-09-02T09:59:07.855Z,21.09
2022-09-02T10:01:09.211Z,21.10
2022-09-02T10:03:10.887Z,21.12
2022-09-02T10:05:12.367Z,21.13
2022-09-02T10:07:13.819Z,21.15
2022-09-02T10:09:15.169Z,21.17
2022-09-02T10:11:16.484Z,21.05
2022-09-02T10:15:24.270Z,20.86
2022-09-02T10:17:25.590Z,20.83
2022-09-02T10:19:26.951Z,20.90
2022-09-02T10:21:28.275Z,21.01
2022-09-02T10:23:29.585Z,20.97
2022-09-02T10:25:30.964Z,20.86
2022-09-02T10:27:32.343Z,20.80
2022-09-02T10:29:33.876Z,20.79
2022-09-02T10:31:35.204Z,20.76
2022-09-02T10:33:36.603Z,20.73
2022-09-02T10:35:37.923Z,20.71
2022-09-02T10:37:39.279Z,20.69
2022-09-02T10:39:40.587Z,20.74
2022-09-02T10:43:56.877Z,20.93
2022-09-02T10:45:58.966Z,20.83
2022-09-02T10:48:00.325Z,20.79
2022-09-02T10:50:01.687Z,20.75
2022-09-02T10:52:04.631Z,20.71
2022-09-02T10:54:09.709Z,20.70
2022-09-02T10:56:11.868Z,20.68
2022-09-02T10:58:13.263Z,20.67
2022-09-02T11:00:14.600Z,20.67
2022-09-02T11:02:15.956Z,20.63
2022-09-02T11:04:17.317Z,20.62
2022-09-02T11:06:26.219Z,20.60
2022-09-02T11:08:33.024Z,20.58
2022-09-02T11:10:34.456Z,20.58
2022-09-02T11:12:35.797Z,20.57
2022-09-02T11:14:37.234Z,20.56
2022-09-02T11:16:39.874Z,20.59
2022-09-02T11:18:43.743Z,20.58
2022-09-02T11:20:46.536Z,20.59
2022-09-02T11:22:47.919Z,20.58
2022-09-02T11:24:49.265Z,20.58
2022-09-02T11:26:50.732Z,20.56
2022-09-02T11:28:52.057Z,20.55
2022-09-02T11:30:53.376Z,20.54
2022-09-02T11:32:54.735Z,20.51
2022-09-02T11:34:56.047Z,20.57
2022-09-02T11:36:57.391Z,20.67
2022-09-02T11:38:58.726Z,20.78
2022-09-02T11:43:22.841Z,20.71
2022-09-02T11:45:24.233Z,20.81
2022-09-02T11:47:25.598Z,20.83
2022-09-02T11:49:27.317Z,20.90
2022-09-02T11:51:28.689Z,20.95
2022-09-02T11:53:30.079Z,20.93
2022-09-02T11:55:31.386Z,20.83
2022-09-02T11:57:32.935Z,20.76
2022-09-02T11:59:34.636Z,20.71
2022-09-02T12:01:35.935Z,20.67
2022-09-02T12:04:06.868Z,20.63
2022-09-02T12:06:05.666Z,20.60
2022-09-02T12:08:07.238Z,20.59
2022-09-02T12:10:09.035Z,20.56
2022-09-02T12:12:11.908Z,20.55
2022-09-02T12:14:13.666Z,20.55
2022-09-02T12:16:23.995Z,20.54
2022-09-02T12:18:27.953Z,20.53
2022-09-02T12:20:29.294Z,20.57
2022-09-02T12:22:30.602Z,20.60
2022-09-02T12:24:32.953Z,20.57
2022-09-02T12:26:34.756Z,20.55
2022-09-02T12:28:36.063Z,20.55
2022-09-02T12:30:37.388Z,20.52
2022-09-02T12:32:38.740Z,20.59
2022-09-02T12:34:40.045Z,20.62
2022-09-02T12:36:42.341Z,20.59
2022-09-02T12:38:44.014Z,20.55
2022-09-02T12:40:45.474Z,20.54
2022-09-02T12:42:48.392Z,20.61
2022-09-02T12:44:49.942Z,20.70
2022-09-02T12:46:51.450Z,20.65
2022-09-02T12:48:52.855Z,20.67
2022-09-02T12:50:55.206Z,20.85
2022-09-02T12:52:56.514Z,20.97
2022-09-02T12:54:57.814Z,21.04
2022-09-02T12:56:59.952Z,21.04
2022-09-02T12:59:02.884Z,20.94
2022-09-02T13:01:05.551Z,20.85
2022-09-02T13:03:06.884Z,20.87
2022-09-02T13:05:08.534Z,21.01
2022-09-02T13:07:09.868Z,20.97
2022-09-02T13:09:11.485Z,20.94
2022-09-02T13:11:12.859Z,20.92
2022-09-02T13:13:14.294Z,20.95
2022-09-02T13:15:17.454Z,20.92
2022-09-02T13:17:37.321Z,20.88
2022-09-02T13:19:38.820Z,20.84
2022-09-02T13:21:41.136Z,20.83
2022-09-02T13:23:42.451Z,20.81
2022-09-02T13:25:43.792Z,20.81
2022-09-02T13:27:45.107Z,20.88
2022-09-02T13:29:46.418Z,20.87
2022-09-02T13:31:48.015Z,20.88
2022-09-02T13:33:50.337Z,20.85
2022-09-02T13:35:51.652Z,20.87
2022-09-02T13:37:53.112Z,20.95
2022-09-02T13:39:54.479Z,21.00
2022-09-02T13:41:57.372Z,21.06
2022-09-02T13:43:58.727Z,21.02
2022-09-02T13:46:00.195Z,21.01
2022-09-02T13:48:01.579Z,21.01
2022-09-02T13:50:02.940Z,21.03
2022-09-02T13:52:05.247Z,21.06
2022-09-02T13:54:22.619Z,21.05
2022-09-02T13:56:25.086Z,21.03
2022-09-02T13:58:26.983Z,21.01
2022-09-02T14:00:28.413Z,21.04
2022-09-02T14:02:29.884Z,21.08
2022-09-02T14:04:33.326Z,21.08
2022-09-02T14:06:36.618Z,21.10
2022-09-02T14:08:37.949Z,21.12
2022-09-02T14:10:39.522Z,21.10
2022-09-02T14:12:40.922Z,21.13
2022-09-02T14:14:42.243Z,21.14
2022-09-02T14:16:43.540Z,21.15
2022-09-02T14:18:44.863Z,21.14
2022-09-02T14:20:46.187Z,21.12
2022-09-02T14:22:47.531Z,21.10
2022-09-02T14:24:48.871Z,21.12
2022-09-02T14:26:50.222Z,21.15
2022-09-02T14:28:51.576Z,21.16
2022-09-02T14:30:52.914Z,21.16
2022-09-02T14:32:56.010Z,21.15
2022-09-02T14:34:57.394Z,21.14
2022-09-02T14:36:58.707Z,21.14
2022-09-02T14:39:00.032Z,21.15
2022-09-02T14:41:01.399Z,21.14
2022-09-02T14:43:02.842Z,21.14
2022-09-02T14:45:05.694Z,21.13
2022-09-02T14:47:07.068Z,21.13
2022-09-02T14:49:09.148Z,21.10
2022-09-02T14:51:10.460Z,21.09
2022-09-02T14:53:11.833Z,21.10
2022-09-02T14:55:13.191Z,21.10
2022-09-02T14:57:14.505Z,21.09
2022-09-02T14:59:15.854Z,21.09
2022-09-02T15:01:17.373Z,21.08
2022-09-02T15:03:18.758Z,21.05
2022-09-02T15:05:22.141Z,21.06
2022-09-02T15:07:23.498Z,21.06
2022-09-02T15:09:25.050Z,21.03
2022-09-02T15:11:26.403Z,21.03
2022-09-02T15:13:27.882Z,21.02
2022-09-02T15:15:29.303Z,21.00
2022-09-02T15:17:31.008Z,20.99
2022-09-02T15:19:33.276Z,21.32
2022-09-02T15:21:34.639Z,22.03
2022-09-02T15:23:41.107Z,22.01
2022-09-02T15:25:42.748Z,22.03
2022-09-02T15:27:44.071Z,22.09
2022-09-02T15:29:45.375Z,22.13
2022-09-02T15:31:46.714Z,22.19
2022-09-02T15:33:48.030Z,22.04
2022-09-02T15:35:49.591Z,22.14
2022-09-02T15:37:51.074Z,22.23
2022-09-02T15:39:52.426Z,22.26
2022-09-02T15:41:55.376Z,22.28
2022-09-02T15:43:56.787Z,22.57
2022-09-02T15:45:58.139Z,22.78
2022-09-02T15:47:59.610Z,22.94
2022-09-02T15:50:00.930Z,22.91
2022-09-02T15:52:03.026Z,23.03
2022-09-02T15:54:04.366Z,22.80
2022-09-02T15:56:05.712Z,22.79
2022-09-02T15:58:07.035Z,23.00
2022-09-02T16:00:09.805Z,22.90
2022-09-02T16:02:12.408Z,22.67
2022-09-02T16:04:13.767Z,22.42
2022-09-02T16:06:15.088Z,22.33
2022-09-02T16:08:16.428Z,22.33
2022-09-02T16:10:17.754Z,22.58
2022-09-02T16:12:19.104Z,22.55
2022-09-02T16:14:21.081Z,22.42
2022-09-02T16:16:22.700Z,22.10
2022-09-02T16:18:24.199Z,21.78
2022-09-02T16:20:25.515Z,21.61
2022-09-02T16:22:26.839Z,21.50
2022-09-02T16:24:28.230Z,21.45
2022-09-02T16:26:29.561Z,21.38
2022-09-02T16:28:30.965Z,21.34
2022-09-02T16:30:32.682Z,21.46
2022-09-02T16:32:34.023Z,21.98
2022-09-02T16:34:35.347Z,22.29
2022-09-02T16:36:36.666Z,22.41
2022-09-02T16:38:38.006Z,22.24
2022-09-02T16:40:39.348Z,22.23
2022-09-02T16:42:40.696Z,22.34
2022-09-02T16:44:42.079Z,22.36
2022-09-02T16:46:43.477Z,22.34
2022-09-02T16:48:44.786Z,22.23
2022-09-02T16:50:46.194Z,21.87
2022-09-02T16:52:47.506Z,21.65
2022-09-02T16:54:48.930Z,21.52
2022-09-02T16:56:50.286Z,21.43
2022-09-02T16:58:52.623Z,21.37
2022-09-02T17:00:53.961Z,21.32
2022-09-02T17:02:55.332Z,21.29
2022-09-02T17:04:56.807Z,21.68
2022-09-02T17:06:59.167Z,22.19
2022-09-02T17:09:00.530Z,22.38
2022-09-02T17:11:01.874Z,22.56
2022-09-02T17:13:03.316Z,22.41
2022-09-02T17:15:05.406Z,22.09
2022-09-02T17:17:06.780Z,22.18
2022-09-02T17:19:08.198Z,22.51
2022-09-02T17:21:09.507Z,22.45
2022-09-02T17:23:12.035Z,22.41
2022-09-02T17:25:13.365Z,22.31
2022-09-02T17:27:14.687Z,22.17
2022-09-02T17:29:47.120Z,22.47
2022-09-02T17:31:40.109Z,22.65
2022-09-02T17:33:41.721Z,22.56
2022-09-02T17:35:43.049Z,22.50
2022-09-02T17:37:44.380Z,22.48
2022-09-02T17:39:46.615Z,22.39
2022-09-02T17:41:54.265Z,22.33
2022-09-02T17:43:57.002Z,22.33
2022-09-02T17:45:58.393Z,22.31
2022-09-02T17:48:19.061Z,22.24
2022-09-02T17:50:21.153Z,22.27
2022-09-02T17:52:22.510Z,22.26
2022-09-02T17:54:23.858Z,22.00
2022-09-02T17:56:27.295Z,22.10
2022-09-02T17:58:29.372Z,22.11
2022-09-02T18:00:30.688Z,22.11
2022-09-02T18:02:33.350Z,22.13
2022-09-02T18:04:34.724Z,22.17
2022-09-02T18:06:36.027Z,22.22
2022-09-02T18:08:37.758Z,22.21
2022-09-02T18:10:39.102Z,22.23
2022-09-02T18:12:40.417Z,22.27
2022-09-02T18:14:41.771Z,22.26
2022-09-02T18:16:49.452Z,22.25
2022-09-02T18:18:52.736Z,22.24
2022-09-02T18:20:54.138Z,22.24
2022-09-02T18:22:55.478Z,22.24
2022-09-02T18:24:56.806Z,22.21
2022-09-02T18:26:58.124Z,22.22
2022-09-02T18:28:59.658Z,22.22
2022-09-02T18:31:01.062Z,22.22
2022-09-02T18:33:02.901Z,22.18
2022-09-02T18:35:04.376Z,22.19
2022-09-02T18:37:06.264Z,21.94
2022-09-02T18:39:07.611Z,22.08
2022-09-02T18:41:08.924Z,22.24
2022-09-02T18:43:10.936Z,22.19
2022-09-02T18:45:13.350Z,22.17
2022-09-02T18:47:14.969Z,22.18
2022-09-02T18:49:16.369Z,22.18
2022-09-02T18:51:17.926Z,22.08
2022-09-02T18:53:19.251Z,22.13
2022-09-02T18:55:20.607Z,22.16
2022-09-02T18:57:21.969Z,20.06
2022-09-02T18:59:28.548Z,22.10
2022-09-02T19:01:30.463Z,22.10
2022-09-02T19:03:31.884Z,22.09
2022-09-02T19:05:33.775Z,22.05
2022-09-02T19:07:53.597Z,21.86
2022-09-02T19:09:56.691Z,21.83
2022-09-02T19:12:06.201Z,21.96
2022-09-02T19:14:13.447Z,22.00
2022-09-02T19:16:15.275Z,22.03
2022-09-02T19:18:16.636Z,22.04
2022-09-02T19:20:18.781Z,22.07
2022-09-02T19:22:20.205Z,22.13
2022-09-02T19:24:24.212Z,22.09
2022-09-02T19:26:25.526Z,22.11
2022-09-02T19:28:29.158Z,22.19
2022-09-02T19:30:36.084Z,22.25
2022-09-02T19:32:40.064Z,22.27
2022-09-02T19:34:42.025Z,22.31
2022-09-02T19:36:43.386Z,22.37
2022-09-02T19:38:44.678Z,22.43
2022-09-02T19:40:49.532Z,22.46
2022-09-02T19:42:54.289Z,22.52
2022-09-02T19:44:56.070Z,22.51
2022-09-02T19:47:49.704Z,22.56
2022-09-02T19:49:18.684Z,22.60
2022-09-02T19:51:22.126Z,22.62
2022-09-02T19:53:30.141Z,22.51
2022-09-02T19:55:33.818Z,22.15
2022-09-02T19:57:35.253Z,21.94
2022-09-02T19:59:36.569Z,21.84
2022-09-02T20:01:37.972Z,21.75
2022-09-02T20:03:39.646Z,21.70
2022-09-02T20:05:40.970Z,21.67
2022-09-02T20:07:42.412Z,21.61
2022-09-02T20:09:44.023Z,21.73
2022-09-02T20:11:48.250Z,21.92
2022-09-02T20:13:52.777Z,22.04
2022-09-02T20:15:54.163Z,22.09
2022-09-02T20:17:55.567Z,22.14
2022-09-02T20:20:00.191Z,22.18
2022-09-02T20:22:01.791Z,22.47
2022-09-02T20:24:03.100Z,22.60
2022-09-02T20:26:04.435Z,22.64
2022-09-02T20:28:06.072Z,22.62
2022-09-02T20:30:08.526Z,22.43
2022-09-02T20:32:09.980Z,22.33
2022-09-02T20:34:11.816Z,22.27
2022-09-02T20:36:14.068Z,22.49
2022-09-02T20:38:15.420Z,22.41
2022-09-02T20:40:16.819Z,22.48
2022-09-02T20:42:18.133Z,22.40
2022-09-02T20:44:20.527Z,22.37
2022-09-02T20:46:25.019Z,22.39
2022-09-02T20:48:28.025Z,22.39
2022-09-02T20:50:29.337Z,22.37
2022-09-02T20:52:31.326Z,22.01
2022-09-02T20:54:32.718Z,21.84
2022-09-02T20:56:34.040Z,22.06
2022-09-02T20:58:36.567Z,22.15
2022-09-02T21:00:37.965Z,22.19
2022-09-02T21:02:41.361Z,22.23
2022-09-02T21:04:42.769Z,22.31
2022-09-02T21:06:44.255Z,22.28
2022-09-02T21:08:47.086Z,22.25
2022-09-02T21:10:48.985Z,22.23
2022-09-02T21:12:50.319Z,22.22
2022-09-02T21:14:51.661Z,22.34
2022-09-02T21:16:52.962Z,22.42
2022-09-02T21:18:54.262Z,22.34
2022-09-02T21:20:55.568Z,22.46
2022-09-02T21:22:56.983Z,22.42
2022-09-02T21:24:58.302Z,22.42
2022-09-02T21:26:59.643Z,22.49
2022-09-02T21:29:00.981Z,22.41
2022-09-02T21:31:02.350Z,22.42
2022-09-02T21:33:04.914Z,22.43
2022-09-02T21:35:06.223Z,22.24
2022-09-02T21:37:07.539Z,21.96
2022-09-02T21:39:08.851Z,21.89
2022-09-02T21:41:10.152Z,21.85
2022-09-02T21:43:11.446Z,21.78
2022-09-02T21:45:12.755Z,21.72
2022-09-02T21:47:15.362Z,21.69
2022-09-02T21:49:16.662Z,21.65
2022-09-02T21:51:17.988Z,21.63
2022-09-02T21:53:19.423Z,21.60
2022-09-02T21:55:20.727Z,21.57
2022-09-02T21:57:22.156Z,21.53
2022-09-02T21:59:23.492Z,21.50
2022-09-02T22:01:24.878Z,21.48
2022-09-02T22:03:29.387Z,21.47
2022-09-02T22:05:30.724Z,21.45
2022-09-02T22:07:32.019Z,21.43
2022-09-02T22:09:33.369Z,21.40
2022-09-02T22:11:37.227Z,21.39
2022-09-02T22:13:40.769Z,21.36
2022-09-02T22:15:42.626Z,21.35
2022-09-02T22:17:45.869Z,21.32
2022-09-02T22:19:54.034Z,21.32
2022-09-02T22:21:55.334Z,21.31
2022-09-02T22:23:56.927Z,21.28
2022-09-02T22:25:58.543Z,21.27
2022-09-02T22:27:59.846Z,21.26
2022-09-02T22:30:01.179Z,21.24
2022-09-02T22:32:02.499Z,21.21
2022-09-02T22:34:03.810Z,21.20
2022-09-02T22:36:05.150Z,21.18
2022-09-02T22:38:09.613Z,21.18
2022-09-02T22:40:10.967Z,21.17
2022-09-02T22:42:12.275Z,21.17
2022-09-02T22:44:13.619Z,21.17
2022-09-02T22:46:33.760Z,21.16
2022-09-02T22:48:53.863Z,21.14
2022-09-02T22:51:18.460Z,21.14
2022-09-02T22:53:20.390Z,21.13
2022-09-02T22:55:21.755Z,21.12
2022-09-02T22:57:23.075Z,21.11
2022-09-02T22:59:24.491Z,21.10
2022-09-02T23:01:25.935Z,21.08
2022-09-02T23:03:27.314Z,21.08
2022-09-02T23:05:49.344Z,21.08
2022-09-02T23:07:50.654Z,21.10
2022-09-02T23:09:54.849Z,21.12
2022-09-02T23:12:02.223Z,21.14
2022-09-02T23:14:09.159Z,21.11
2022-09-02T23:16:11.855Z,21.20
2022-09-02T23:18:13.282Z,21.18
2022-09-02T23:20:14.787Z,21.16
2022-09-02T23:22:17.502Z,21.15
2022-09-02T23:24:19.814Z,21.16
2022-09-02T23:26:21.114Z,21.14
2022-09-02T23:28:28.182Z,21.15
2022-09-02T23:30:29.482Z,21.13
2022-09-02T23:32:31.977Z,21.11
2022-09-02T23:34:33.318Z,21.12
2022-09-02T23:36:35.181Z,21.11
2022-09-02T23:38:41.491Z,21.09
2022-09-02T23:40:43.019Z,21.09
2022-09-02T23:42:44.345Z,21.09
2022-09-02T23:44:46.141Z,21.07
2022-09-02T23:46:47.558Z,21.07
2022-09-02T23:48:48.943Z,21.07
2022-09-02T23:50:50.251Z,21.06
2022-09-02T23:52:56.488Z,21.06
2022-09-02T23:54:57.898Z,21.05
2022-09-02T23:56:59.198Z,21.04
2022-09-02T23:59:00.510Z,21.04
